sensor_id;sensor_type;location;lat;lon;timestamp;noise_LAeq;noise_LA_min;noise_LA_max;noise_LA01;noise_LA95
69603;Laerm;56810;52.182;4.506;2022-08-19T00:00:10;30.00;28.69;31.60;;
69603;Laerm;56810;52.182;4.506;2022-08-19T00:00:20;31.26;29.04;32.96;;
69603;Laerm;56810;52.182;4.506;2022-08-19T00:00:31;37.71;29.53;55.47;;
69603;Laerm;56810;52.182;4.506;2022-08-19T00:00:41;30.23;29.04;31.62;;
69603;Laerm;56810;52.182;4.506;2022-08-19T00:00:51;29.53;28.12;30.82;;
69603;Laerm;56810;52.182;4.506;2022-08-19T00:01:01;29.52;28.42;31.11;;
69603;Laerm;56810;52.182;4.506;2022-08-19T00:01:13;29.51;28.41;30.68;;
69603;Laerm;56810;52.182;4.506;2022-08-19T00:01:24;29.41;28.08;30.37;;
69603;Laerm;56810;52.182;4.506;2022-08-19T00:01:36;29.39;28.35;31.73;;
69603;Laerm;56810;52.182;4.506;2022-08-19T00:01:47;29.48;28.08;30.81;;
69603;Laerm;56810;52.182;4.506;2022-08-19T00:01:58;29.73;28.30;33.18;;
69603;Laerm;56810;52.182;4.506;2022-08-19T00:02:08;29.70;28.26;35.96;;
69603;Laerm;56810;52.182;4.506;2022-08-19T00:02:18;29.70;28.46;31.56;;
69603;Laerm;56810;52.182;4.506;2022-08-19T00:02:29;29.79;28.46;30.96;;
69603;Laerm;56810;52.182;4.506;2022-08-19T00:02:39;29.77;28.50;30.93;;
69603;Laerm;56810;52.182;4.506;2022-08-19T00:02:49;29.64;28.37;30.92;;
69603;Laerm;56810;52.182;4.506;2022-08-19T00:02:59;29.69;27.99;31.75;;
69603;Laerm;56810;52.182;4.506;2022-08-19T00:03:10;29.60;28.19;32.34;;
69603;Laerm;56810;52.182;4.506;2022-08-19T00:03:20;30.05;28.56;33.81;;
69603;Laerm;56810;52.182;4.506;2022-08-19T00:03:30;29.61;28.11;34.62;;
69603;Laerm;56810;52.182;4.506;2022-08-19T00:03:40;29.37;28.07;31.00;;
69603;Laerm;56810;52.182;4.506;2022-08-19T00:03:51;29.51;28.16;30.72;;
69603;Laerm;56810;52.182;4.506;2022-08-19T00:04:02;29.31;28.21;30.97;;
69603;Laerm;56810;52.182;4.506;2022-08-19T00:04:13;29.36;27.98;31.34;;
69603;Laerm;56810;52.182;4.506;2022-08-19T00:04:26;29.50;28.34;30.88;;
69603;Laerm;56810;52.182;4.506;2022-08-19T00:04:37;29.66;28.15;31.49;;
69603;Laerm;56810;52.182;4.506;2022-08-19T00:04:47;29.57;28.21;31.37;;
69603;Laerm;56810;52.182;4.506;2022-08-19T00:05:03;29.67;27.82;31.45;;
69603;Laerm;56810;52.182;4.506;2022-08-19T00:05:14;29.38;27.90;30.99;;
69603;Laerm;56810;52.182;4.506;2022-08-19T00:05:25;29.39;28.05;30.47;;
69603;Laerm;56810;52.182;4.506;2022-08-19T00:05:38;29.52;28.18;31.21;;
69603;Laerm;56810;52.182;4.506;2022-08-19T00:05:49;29.50;28.14;31.13;;
69603;Laerm;56810;52.182;4.506;2022-08-19T00:05:59;29.97;28.39;32.34;;
69603;Laerm;56810;52.182;4.506;2022-08-19T00:06:09;29.99;28.23;36.43;;
69603;Laerm;56810;52.182;4.506;2022-08-19T00:06:19;29.92;28.40;31.94;;
69603;Laerm;56810;52.182;4.506;2022-08-19T00:06:30;30.17;28.61;32.36;;
69603;Laerm;56810;52.182;4.506;2022-08-19T00:06:41;30.32;28.71;32.94;;
69603;Laerm;56810;52.182;4.506;2022-08-19T00:06:52;30.06;28.27;32.46;;
69603;Laerm;56810;52.182;4.506;2022-08-19T00:07:03;29.94;28.31;32.81;;
69603;Laerm;56810;52.182;4.506;2022-08-19T00:07:14;29.95;28.47;38.41;;
69603;Laerm;56810;52.182;4.506;2022-08-19T00:07:24;29.92;28.56;31.72;;
69603;Laerm;56810;52.182;4.506;2022-08-19T00:07:34;29.92;28.57;31.49;;
69603;Laerm;56810;52.182;4.506;2022-08-19T00:07:45;29.78;28.66;31.08;;
69603;Laerm;56810;52.182;4.506;2022-08-19T00:07:55;30.08;28.47;32.32;;
69603;Laerm;56810;52.182;4.506;2022-08-19T00:08:05;29.64;28.20;31.38;;
69603;Laerm;56810;52.182;4.506;2022-08-19T00:08:16;29.87;28.13;32.94;;
69603;Laerm;56810;52.182;4.506;2022-08-19T00:08:26;29.90;28.55;34.84;;
69603;Laerm;56810;52.182;4.506;2022-08-19T00:08:36;29.54;28.34;31.20;;
69603;Laerm;56810;52.182;4.506;2022-08-19T00:08:47;29.72;28.14;32.39;;
69603;Laerm;56810;52.182;4.506;2022-08-19T00:08:57;29.57;28.49;31.20;;
69603;Laerm;56810;52.182;4.506;2022-08-19T00:09:10;29.68;28.41;31.78;;
69603;Laerm;56810;52.182;4.506;2022-08-19T00:09:22;29.95;28.11;32.36;;
69603;Laerm;56810;52.182;4.506;2022-08-19T00:09:33;29.87;28.56;31.37;;
69603;Laerm;56810;52.182;4.506;2022-08-19T00:09:44;29.81;28.72;32.71;;
69603;Laerm;56810;52.182;4.506;2022-08-19T00:09:54;29.65;28.19;34.15;;
69603;Laerm;56810;52.182;4.506;2022-08-19T00:10:05;29.53;28.39;30.97;;
69603;Laerm;56810;52.182;4.506;2022-08-19T00:10:16;29.78;28.45;31.37;;
69603;Laerm;56810;52.182;4.506;2022-08-19T00:10:27;33.68;29.04;37.18;;
69603;Laerm;56810;52.182;4.506;2022-08-19T00:10:37;39.19;32.73;43.76;;
69603;Laerm;56810;52.182;4.506;2022-08-19T00:10:47;42.65;37.29;46.43;;
69603;Laerm;56810;52.182;4.506;2022-08-19T00:10:57;48.55;40.98;56.32;;
69603;Laerm;56810;52.182;4.506;2022-08-19T00:11:08;48.33;43.35;52.99;;
69603;Laerm;56810;52.182;4.506;2022-08-19T00:11:18;47.57;43.84;50.88;;
69603;Laerm;56810;52.182;4.506;2022-08-19T00:11:29;44.03;38.53;49.94;;
69603;Laerm;56810;52.182;4.506;2022-08-19T00:11:39;38.48;34.34;43.72;;
69603;Laerm;56810;52.182;4.506;2022-08-19T00:11:49;33.83;30.26;36.69;;
69603;Laerm;56810;52.182;4.506;2022-08-19T00:12:00;30.53;28.98;32.34;;
69603;Laerm;56810;52.182;4.506;2022-08-19T00:12:11;29.60;28.26;32.61;;
69603;Laerm;56810;52.182;4.506;2022-08-19T00:12:21;29.41;28.16;30.58;;
69603;Laerm;56810;52.182;4.506;2022-08-19T00:12:32;29.34;28.26;30.42;;
69603;Laerm;56810;52.182;4.506;2022-08-19T00:12:42;29.41;28.32;30.99;;
69603;Laerm;56810;52.182;4.506;2022-08-19T00:12:52;29.44;28.26;34.24;;
69603;Laerm;56810;52.182;4.506;2022-08-19T00:13:02;29.67;28.38;32.42;;
69603;Laerm;56810;52.182;4.506;2022-08-19T00:13:14;29.56;28.17;32.38;;
69603;Laerm;56810;52.182;4.506;2022-08-19T00:13:25;29.77;28.41;31.79;;
69603;Laerm;56810;52.182;4.506;2022-08-19T00:13:36;29.74;28.41;35.95;;
69603;Laerm;56810;52.182;4.506;2022-08-19T00:13:48;29.57;28.16;36.26;;
69603;Laerm;56810;52.182;4.506;2022-08-19T00:14:00;29.53;28.37;31.31;;
69603;Laerm;56810;52.182;4.506;2022-08-19T00:14:10;29.57;28.34;30.79;;
69603;Laerm;56810;52.182;4.506;2022-08-19T00:14:21;29.54;28.28;31.84;;
69603;Laerm;56810;52.182;4.506;2022-08-19T00:14:32;29.55;28.17;30.90;;
69603;Laerm;56810;52.182;4.506;2022-08-19T00:14:42;29.63;28.66;31.37;;
69603;Laerm;56810;52.182;4.506;2022-08-19T00:14:54;29.41;28.23;31.66;;
69603;Laerm;56810;52.182;4.506;2022-08-19T00:15:05;29.34;28.28;32.38;;
69603;Laerm;56810;52.182;4.506;2022-08-19T00:15:17;29.59;28.05;30.88;;
69603;Laerm;56810;52.182;4.506;2022-08-19T00:15:27;29.57;28.54;32.13;;
69603;Laerm;56810;52.182;4.506;2022-08-19T00:15:38;29.85;28.15;42.03;;
69603;Laerm;56810;52.182;4.506;2022-08-19T00:15:48;29.46;28.34;30.65;;
69603;Laerm;56810;52.182;4.506;2022-08-19T00:15:58;30.01;28.33;32.19;;
69603;Laerm;56810;52.182;4.506;2022-08-19T00:16:09;32.75;29.96;35.42;;
69603;Laerm;56810;52.182;4.506;2022-08-19T00:16:19;39.33;33.29;45.34;;
69603;Laerm;56810;52.182;4.506;2022-08-19T00:16:30;55.76;43.86;63.43;;
69603;Laerm;56810;52.182;4.506;2022-08-19T00:16:41;34.57;29.40;44.53;;
69603;Laerm;56810;52.182;4.506;2022-08-19T00:16:52;29.74;28.36;31.01;;
69603;Laerm;56810;52.182;4.506;2022-08-19T00:17:04;29.41;28.38;31.72;;
69603;Laerm;56810;52.182;4.506;2022-08-19T00:17:16;29.44;28.20;34.40;;
69603;Laerm;56810;52.182;4.506;2022-08-19T00:17:26;29.42;28.33;32.20;;
69603;Laerm;56810;52.182;4.506;2022-08-19T00:17:37;29.49;28.38;31.78;;
69603;Laerm;56810;52.182;4.506;2022-08-19T00:17:48;29.62;28.19;33.82;;
69603;Laerm;56810;52.182;4.506;2022-08-19T00:17:58;29.82;28.16;42.28;;
69603;Laerm;56810;52.182;4.506;2022-08-19T00:18:08;29.57;28.34;31.52;;
69603;Laerm;56810;52.182;4.506;2022-08-19T00:18:18;29.68;28.11;31.90;;
69603;Laerm;56810;52.182;4.506;2022-08-19T00:18:29;29.59;28.19;32.00;;
69603;Laerm;56810;52.182;4.506;2022-08-19T00:18:39;29.35;28.25;31.31;;
69603;Laerm;56810;52.182;4.506;2022-08-19T00:18:49;29.36;28.30;30.66;;
69603;Laerm;56810;52.182;4.506;2022-08-19T00:18:59;29.53;28.49;31.52;;
69603;Laerm;56810;52.182;4.506;2022-08-19T00:19:10;29.84;28.29;34.27;;
69603;Laerm;56810;52.182;4.506;2022-08-19T00:19:20;29.69;27.99;34.22;;
69603;Laerm;56810;52.182;4.506;2022-08-19T00:19:31;33.13;28.60;40.34;;
69603;Laerm;56810;52.182;4.506;2022-08-19T00:19:41;36.49;28.83;54.43;;
69603;Laerm;56810;52.182;4.506;2022-08-19T00:19:51;34.50;29.57;39.09;;
69603;Laerm;56810;52.182;4.506;2022-08-19T00:20:02;30.23;28.23;34.27;;
69603;Laerm;56810;52.182;4.506;2022-08-19T00:20:13;31.05;28.42;37.04;;
69603;Laerm;56810;52.182;4.506;2022-08-19T00:20:26;32.18;29.99;37.87;;
69603;Laerm;56810;52.182;4.506;2022-08-19T00:20:37;31.27;29.21;37.23;;
69603;Laerm;56810;52.182;4.506;2022-08-19T00:20:50;31.37;28.16;41.64;;
69603;Laerm;56810;52.182;4.506;2022-08-19T00:21:00;29.76;28.02;33.63;;
69603;Laerm;56810;52.182;4.506;2022-08-19T00:21:11;30.01;28.27;37.64;;
69603;Laerm;56810;52.182;4.506;2022-08-19T00:21:22;32.41;28.44;42.04;;
69603;Laerm;56810;52.182;4.506;2022-08-19T00:21:32;33.22;28.39;44.22;;
69603;Laerm;56810;52.182;4.506;2022-08-19T00:21:43;34.02;29.05;43.71;;
69603;Laerm;56810;52.182;4.506;2022-08-19T00:21:53;35.65;29.28;44.17;;
69603;Laerm;56810;52.182;4.506;2022-08-19T00:22:04;42.12;29.06;53.44;;
69603;Laerm;56810;52.182;4.506;2022-08-19T00:22:15;42.76;29.04;60.45;;
69603;Laerm;56810;52.182;4.506;2022-08-19T00:22:27;49.13;28.82;64.82;;
69603;Laerm;56810;52.182;4.506;2022-08-19T00:22:38;44.96;28.89;60.08;;
69603;Laerm;56810;52.182;4.506;2022-08-19T00:22:52;38.87;28.52;55.59;;
69603;Laerm;56810;52.182;4.506;2022-08-19T00:23:02;32.77;28.21;44.84;;
69603;Laerm;56810;52.182;4.506;2022-08-19T00:23:13;30.74;28.31;37.89;;
69603;Laerm;56810;52.182;4.506;2022-08-19T00:23:23;31.62;28.64;41.07;;
69603;Laerm;56810;52.182;4.506;2022-08-19T00:23:34;30.80;28.48;36.67;;
69603;Laerm;56810;52.182;4.506;2022-08-19T00:23:46;29.87;28.40;34.53;;
69603;Laerm;56810;52.182;4.506;2022-08-19T00:23:56;30.21;28.60;35.56;;
69603;Laerm;56810;52.182;4.506;2022-08-19T00:24:11;30.25;28.14;34.51;;
69603;Laerm;56810;52.182;4.506;2022-08-19T00:24:22;29.56;28.36;32.92;;
69603;Laerm;56810;52.182;4.506;2022-08-19T00:24:32;29.63;28.49;33.39;;
69603;Laerm;56810;52.182;4.506;2022-08-19T00:24:43;29.77;28.42;32.61;;
69603;Laerm;56810;52.182;4.506;2022-08-19T00:24:53;29.57;28.40;33.08;;
69603;Laerm;56810;52.182;4.506;2022-08-19T00:25:05;29.56;28.34;31.77;;
69603;Laerm;56810;52.182;4.506;2022-08-19T00:25:15;29.52;28.01;30.84;;
69603;Laerm;56810;52.182;4.506;2022-08-19T00:25:26;29.58;28.43;32.51;;
69603;Laerm;56810;52.182;4.506;2022-08-19T00:25:36;29.59;28.17;33.59;;
69603;Laerm;56810;52.182;4.506;2022-08-19T00:25:46;30.18;28.55;34.66;;
69603;Laerm;56810;52.182;4.506;2022-08-19T00:25:57;29.71;28.44;32.04;;
69603;Laerm;56810;52.182;4.506;2022-08-19T00:26:07;29.80;28.44;33.46;;
69603;Laerm;56810;52.182;4.506;2022-08-19T00:26:17;31.34;28.24;47.26;;
69603;Laerm;56810;52.182;4.506;2022-08-19T00:26:28;30.03;28.39;37.21;;
69603;Laerm;56810;52.182;4.506;2022-08-19T00:26:38;29.61;28.12;31.22;;
69603;Laerm;56810;52.182;4.506;2022-08-19T00:26:48;29.61;28.46;32.48;;
69603;Laerm;56810;52.182;4.506;2022-08-19T00:26:59;29.53;28.30;30.50;;
69603;Laerm;56810;52.182;4.506;2022-08-19T00:27:11;29.85;28.43;35.11;;
69603;Laerm;56810;52.182;4.506;2022-08-19T00:27:22;29.60;28.59;30.91;;
69603;Laerm;56810;52.182;4.506;2022-08-19T00:27:32;29.88;28.57;34.36;;
69603;Laerm;56810;52.182;4.506;2022-08-19T00:27:42;30.31;28.81;32.09;;
69603;Laerm;56810;52.182;4.506;2022-08-19T00:27:52;29.90;28.57;34.18;;
69603;Laerm;56810;52.182;4.506;2022-08-19T00:28:03;29.60;28.13;30.75;;
69603;Laerm;56810;52.182;4.506;2022-08-19T00:28:14;29.86;28.49;31.12;;
69603;Laerm;56810;52.182;4.506;2022-08-19T00:28:24;29.81;28.35;31.43;;
69603;Laerm;56810;52.182;4.506;2022-08-19T00:28:34;29.78;28.63;31.00;;
69603;Laerm;56810;52.182;4.506;2022-08-19T00:28:45;29.80;28.40;41.04;;
69603;Laerm;56810;52.182;4.506;2022-08-19T00:28:56;29.59;28.43;30.62;;
69603;Laerm;56810;52.182;4.506;2022-08-19T00:29:07;30.00;28.67;41.97;;
69603;Laerm;56810;52.182;4.506;2022-08-19T00:29:18;29.79;28.25;33.20;;
69603;Laerm;56810;52.182;4.506;2022-08-19T00:29:29;29.81;28.35;32.42;;
69603;Laerm;56810;52.182;4.506;2022-08-19T00:29:43;29.85;28.40;40.25;;
69603;Laerm;56810;52.182;4.506;2022-08-19T00:29:54;29.81;28.74;31.05;;
69603;Laerm;56810;52.182;4.506;2022-08-19T00:30:05;29.94;28.16;35.90;;
69603;Laerm;56810;52.182;4.506;2022-08-19T00:30:15;29.79;28.52;31.44;;
69603;Laerm;56810;52.182;4.506;2022-08-19T00:30:25;30.51;28.86;38.50;;
69603;Laerm;56810;52.182;4.506;2022-08-19T00:30:37;29.88;28.29;31.97;;
69603;Laerm;56810;52.182;4.506;2022-08-19T00:30:47;29.64;28.68;30.85;;
69603;Laerm;56810;52.182;4.506;2022-08-19T00:30:58;30.23;28.35;45.47;;
69603;Laerm;56810;52.182;4.506;2022-08-19T00:31:08;29.42;28.04;30.66;;
69603;Laerm;56810;52.182;4.506;2022-08-19T00:31:18;29.52;28.41;30.60;;
69603;Laerm;56810;52.182;4.506;2022-08-19T00:31:29;29.67;28.28;36.11;;
69603;Laerm;56810;52.182;4.506;2022-08-19T00:31:41;29.42;27.88;30.57;;
69603;Laerm;56810;52.182;4.506;2022-08-19T00:31:53;29.38;28.17;33.80;;
69603;Laerm;56810;52.182;4.506;2022-08-19T00:32:05;29.34;28.10;31.15;;
69603;Laerm;56810;52.182;4.506;2022-08-19T00:32:16;29.52;28.32;30.67;;
69603;Laerm;56810;52.182;4.506;2022-08-19T00:32:26;29.60;27.95;30.65;;
69603;Laerm;56810;52.182;4.506;2022-08-19T00:32:38;29.77;28.66;35.69;;
69603;Laerm;56810;52.182;4.506;2022-08-19T00:32:49;30.05;28.52;34.30;;
69603;Laerm;56810;52.182;4.506;2022-08-19T00:32:59;29.67;28.41;31.56;;
69603;Laerm;56810;52.182;4.506;2022-08-19T00:33:09;29.74;28.39;31.35;;
69603;Laerm;56810;52.182;4.506;2022-08-19T00:33:19;30.63;28.75;32.63;;
69603;Laerm;56810;52.182;4.506;2022-08-19T00:33:30;31.52;29.73;33.85;;
69603;Laerm;56810;52.182;4.506;2022-08-19T00:33:43;30.47;28.57;32.22;;
69603;Laerm;56810;52.182;4.506;2022-08-19T00:33:54;29.53;28.25;30.74;;
69603;Laerm;56810;52.182;4.506;2022-08-19T00:34:04;29.89;28.53;31.64;;
69603;Laerm;56810;52.182;4.506;2022-08-19T00:34:14;30.98;29.41;33.31;;
69603;Laerm;56810;52.182;4.506;2022-08-19T00:34:25;33.47;29.84;41.14;;
69603;Laerm;56810;52.182;4.506;2022-08-19T00:34:37;45.08;36.14;53.58;;
69603;Laerm;56810;52.182;4.506;2022-08-19T00:34:48;50.39;44.01;54.79;;
69603;Laerm;56810;52.182;4.506;2022-08-19T00:34:58;49.50;44.06;53.48;;
69603;Laerm;56810;52.182;4.506;2022-08-19T00:35:08;48.24;43.34;52.19;;
69603;Laerm;56810;52.182;4.506;2022-08-19T00:35:19;43.92;36.88;48.88;;
69603;Laerm;56810;52.182;4.506;2022-08-19T00:35:29;34.73;30.89;38.33;;
69603;Laerm;56810;52.182;4.506;2022-08-19T00:35:40;31.06;28.98;33.98;;
69603;Laerm;56810;52.182;4.506;2022-08-19T00:35:50;29.66;28.15;32.08;;
69603;Laerm;56810;52.182;4.506;2022-08-19T00:36:01;29.65;28.47;38.49;;
69603;Laerm;56810;52.182;4.506;2022-08-19T00:36:11;30.81;27.87;49.59;;
69603;Laerm;56810;52.182;4.506;2022-08-19T00:36:22;29.88;28.39;32.44;;
69603;Laerm;56810;52.182;4.506;2022-08-19T00:36:32;30.39;28.44;40.73;;
69603;Laerm;56810;52.182;4.506;2022-08-19T00:36:43;29.47;28.23;31.60;;
69603;Laerm;56810;52.182;4.506;2022-08-19T00:36:54;29.48;28.43;30.97;;
69603;Laerm;56810;52.182;4.506;2022-08-19T00:37:04;29.69;28.59;36.04;;
69603;Laerm;56810;52.182;4.506;2022-08-19T00:37:14;29.64;28.64;31.07;;
69603;Laerm;56810;52.182;4.506;2022-08-19T00:37:24;29.74;28.47;34.03;;
69603;Laerm;56810;52.182;4.506;2022-08-19T00:37:36;29.53;28.37;31.11;;
69603;Laerm;56810;52.182;4.506;2022-08-19T00:37:47;29.57;28.50;30.64;;
69603;Laerm;56810;52.182;4.506;2022-08-19T00:37:58;29.48;28.08;30.50;;
69603;Laerm;56810;52.182;4.506;2022-08-19T00:38:08;29.68;28.19;31.34;;
69603;Laerm;56810;52.182;4.506;2022-08-19T00:38:18;29.48;28.14;30.66;;
69603;Laerm;56810;52.182;4.506;2022-08-19T00:38:33;29.75;28.51;31.83;;
69603;Laerm;56810;52.182;4.506;2022-08-19T00:38:43;29.99;28.55;37.13;;
69603;Laerm;56810;52.182;4.506;2022-08-19T00:38:53;29.81;28.32;31.54;;
69603;Laerm;56810;52.182;4.506;2022-08-19T00:39:04;29.80;28.43;34.94;;
69603;Laerm;56810;52.182;4.506;2022-08-19T00:39:15;29.51;28.27;31.03;;
69603;Laerm;56810;52.182;4.506;2022-08-19T00:39:25;29.51;28.43;30.51;;
69603;Laerm;56810;52.182;4.506;2022-08-19T00:39:36;29.48;28.37;31.85;;
69603;Laerm;56810;52.182;4.506;2022-08-19T00:39:46;29.68;28.44;32.57;;
69603;Laerm;56810;52.182;4.506;2022-08-19T00:39:56;29.81;28.54;36.62;;
69603;Laerm;56810;52.182;4.506;2022-08-19T00:40:07;29.49;28.20;30.90;;
69603;Laerm;56810;52.182;4.506;2022-08-19T00:40:17;29.55;28.08;30.66;;
69603;Laerm;56810;52.182;4.506;2022-08-19T00:40:28;29.95;28.50;32.40;;
69603;Laerm;56810;52.182;4.506;2022-08-19T00:40:42;29.87;28.17;33.24;;
69603;Laerm;56810;52.182;4.506;2022-08-19T00:40:53;29.80;28.56;34.57;;
69603;Laerm;56810;52.182;4.506;2022-08-19T00:41:05;29.80;28.55;31.52;;
69603;Laerm;56810;52.182;4.506;2022-08-19T00:41:16;30.29;28.43;33.33;;
69603;Laerm;56810;52.182;4.506;2022-08-19T00:41:28;30.62;28.79;34.59;;
69603;Laerm;56810;52.182;4.506;2022-08-19T00:41:38;30.51;28.87;36.09;;
69603;Laerm;56810;52.182;4.506;2022-08-19T00:41:49;30.31;28.95;32.17;;
69603;Laerm;56810;52.182;4.506;2022-08-19T00:42:00;30.58;28.90;33.52;;
69603;Laerm;56810;52.182;4.506;2022-08-19T00:42:10;33.71;31.02;37.53;;
69603;Laerm;56810;52.182;4.506;2022-08-19T00:42:20;32.17;28.86;37.09;;
69603;Laerm;56810;52.182;4.506;2022-08-19T00:42:31;30.64;29.00;32.89;;
69603;Laerm;56810;52.182;4.506;2022-08-19T00:42:41;30.49;28.83;34.15;;
69603;Laerm;56810;52.182;4.506;2022-08-19T00:42:52;30.31;28.79;33.25;;
69603;Laerm;56810;52.182;4.506;2022-08-19T00:43:10;31.37;29.24;34.59;;
69603;Laerm;56810;52.182;4.506;2022-08-19T00:43:21;39.63;30.69;45.85;;
69603;Laerm;56810;52.182;4.506;2022-08-19T00:43:32;46.53;40.38;51.02;;
69603;Laerm;56810;52.182;4.506;2022-08-19T00:43:43;49.84;44.93;54.30;;
69603;Laerm;56810;52.182;4.506;2022-08-19T00:44:12;53.34;47.66;58.00;;
69603;Laerm;56810;52.182;4.506;2022-08-19T00:44:24;53.52;47.19;59.14;;
69603;Laerm;56810;52.182;4.506;2022-08-19T00:44:36;47.94;40.84;52.83;;
69603;Laerm;56810;52.182;4.506;2022-08-19T00:44:46;44.53;38.44;49.70;;
69603;Laerm;56810;52.182;4.506;2022-08-19T00:44:56;40.75;33.82;46.13;;
69603;Laerm;56810;52.182;4.506;2022-08-19T00:45:20;38.66;33.45;43.04;;
69603;Laerm;56810;52.182;4.506;2022-08-19T00:45:31;41.02;34.62;48.02;;
69603;Laerm;56810;52.182;4.506;2022-08-19T00:45:42;46.65;41.79;50.68;;
69603;Laerm;56810;52.182;4.506;2022-08-19T00:45:53;46.78;42.37;52.72;;
69603;Laerm;56810;52.182;4.506;2022-08-19T00:46:04;46.32;40.91;50.31;;
69603;Laerm;56810;52.182;4.506;2022-08-19T00:46:14;43.15;38.46;46.97;;
69603;Laerm;56810;52.182;4.506;2022-08-19T00:46:25;38.00;34.44;42.29;;
69603;Laerm;56810;52.182;4.506;2022-08-19T00:46:36;33.12;30.03;38.09;;
69603;Laerm;56810;52.182;4.506;2022-08-19T00:46:48;30.90;29.18;33.87;;
69603;Laerm;56810;52.182;4.506;2022-08-19T00:46:58;30.45;28.78;33.19;;
69603;Laerm;56810;52.182;4.506;2022-08-19T00:47:09;30.36;29.18;32.19;;
69603;Laerm;56810;52.182;4.506;2022-08-19T00:47:19;30.48;28.78;32.13;;
69603;Laerm;56810;52.182;4.506;2022-08-19T00:47:29;30.58;28.98;32.24;;
69603;Laerm;56810;52.182;4.506;2022-08-19T00:47:40;30.87;29.09;33.24;;
69603;Laerm;56810;52.182;4.506;2022-08-19T00:47:50;30.69;29.25;33.38;;
69603;Laerm;56810;52.182;4.506;2022-08-19T00:48:01;30.42;28.67;31.53;;
69603;Laerm;56810;52.182;4.506;2022-08-19T00:48:14;30.17;28.75;31.99;;
69603;Laerm;56810;52.182;4.506;2022-08-19T00:48:24;30.09;28.56;33.43;;
69603;Laerm;56810;52.182;4.506;2022-08-19T00:48:34;30.36;29.14;32.79;;
69603;Laerm;56810;52.182;4.506;2022-08-19T00:48:46;30.11;28.36;31.32;;
69603;Laerm;56810;52.182;4.506;2022-08-19T00:48:56;30.33;28.82;31.86;;
69603;Laerm;56810;52.182;4.506;2022-08-19T00:49:18;30.53;28.93;35.90;;
69603;Laerm;56810;52.182;4.506;2022-08-19T00:49:31;30.09;28.52;31.61;;
69603;Laerm;56810;52.182;4.506;2022-08-19T00:49:45;29.84;28.63;31.10;;
69603;Laerm;56810;52.182;4.506;2022-08-19T00:49:58;29.83;28.32;32.77;;
69603;Laerm;56810;52.182;4.506;2022-08-19T00:50:10;29.57;28.33;32.62;;
69603;Laerm;56810;52.182;4.506;2022-08-19T00:50:21;29.62;28.39;30.87;;
69603;Laerm;56810;52.182;4.506;2022-08-19T00:50:31;30.10;28.44;43.54;;
69603;Laerm;56810;52.182;4.506;2022-08-19T00:50:42;29.78;28.41;31.81;;
69603;Laerm;56810;52.182;4.506;2022-08-19T00:50:53;29.89;28.65;31.29;;
69603;Laerm;56810;52.182;4.506;2022-08-19T00:51:05;29.99;28.71;31.37;;
69603;Laerm;56810;52.182;4.506;2022-08-19T00:51:15;30.17;28.78;32.76;;
69603;Laerm;56810;52.182;4.506;2022-08-19T00:51:27;29.97;28.51;31.51;;
69603;Laerm;56810;52.182;4.506;2022-08-19T00:51:38;30.36;29.19;31.83;;
69603;Laerm;56810;52.182;4.506;2022-08-19T00:51:51;30.12;28.75;32.44;;
69603;Laerm;56810;52.182;4.506;2022-08-19T00:52:04;30.10;28.65;31.67;;
69603;Laerm;56810;52.182;4.506;2022-08-19T00:52:18;30.02;28.72;31.38;;
69603;Laerm;56810;52.182;4.506;2022-08-19T00:52:32;29.87;28.80;32.35;;
69603;Laerm;56810;52.182;4.506;2022-08-19T00:52:45;29.87;28.32;31.28;;
69603;Laerm;56810;52.182;4.506;2022-08-19T00:52:56;29.80;28.58;31.26;;
69603;Laerm;56810;52.182;4.506;2022-08-19T00:53:06;29.83;28.73;31.01;;
69603;Laerm;56810;52.182;4.506;2022-08-19T00:53:18;30.00;28.69;34.97;;
69603;Laerm;56810;52.182;4.506;2022-08-19T00:53:29;30.81;28.44;34.47;;
69603;Laerm;56810;52.182;4.506;2022-08-19T00:53:41;56.57;31.65;68.38;;
69603;Laerm;56810;52.182;4.506;2022-08-19T00:53:52;57.10;35.89;67.19;;
69603;Laerm;56810;52.182;4.506;2022-08-19T00:54:02;35.58;32.29;39.36;;
69603;Laerm;56810;52.182;4.506;2022-08-19T00:54:13;32.02;29.99;34.34;;
69603;Laerm;56810;52.182;4.506;2022-08-19T00:54:24;29.99;28.11;32.26;;
69603;Laerm;56810;52.182;4.506;2022-08-19T00:54:35;30.02;28.16;31.99;;
69603;Laerm;56810;52.182;4.506;2022-08-19T00:54:46;29.86;28.28;36.34;;
69603;Laerm;56810;52.182;4.506;2022-08-19T00:54:58;30.17;28.39;32.08;;
69603;Laerm;56810;52.182;4.506;2022-08-19T00:55:08;33.00;28.90;37.07;;
69603;Laerm;56810;52.182;4.506;2022-08-19T00:55:22;37.37;32.39;43.01;;
69603;Laerm;56810;52.182;4.506;2022-08-19T00:55:33;30.54;28.80;33.92;;
69603;Laerm;56810;52.182;4.506;2022-08-19T00:55:48;30.24;28.42;33.15;;
69603;Laerm;56810;52.182;4.506;2022-08-19T00:55:59;29.91;28.35;32.12;;
69603;Laerm;56810;52.182;4.506;2022-08-19T00:56:10;29.71;28.23;32.06;;
69603;Laerm;56810;52.182;4.506;2022-08-19T00:56:21;29.54;28.11;31.73;;
69603;Laerm;56810;52.182;4.506;2022-08-19T00:56:31;29.56;28.24;32.52;;
69603;Laerm;56810;52.182;4.506;2022-08-19T00:56:42;29.54;28.16;32.09;;
69603;Laerm;56810;52.182;4.506;2022-08-19T00:56:53;29.51;28.19;31.78;;
69603;Laerm;56810;52.182;4.506;2022-08-19T00:57:05;31.64;28.62;37.91;;
69603;Laerm;56810;52.182;4.506;2022-08-19T00:57:17;34.94;29.86;41.80;;
69603;Laerm;56810;52.182;4.506;2022-08-19T00:57:30;33.08;29.16;38.73;;
69603;Laerm;56810;52.182;4.506;2022-08-19T00:57:43;32.47;29.45;38.07;;
69603;Laerm;56810;52.182;4.506;2022-08-19T00:57:56;31.70;29.00;36.17;;
69603;Laerm;56810;52.182;4.506;2022-08-19T00:58:10;30.43;28.32;33.03;;
69603;Laerm;56810;52.182;4.506;2022-08-19T00:58:22;30.21;28.61;34.68;;
69603;Laerm;56810;52.182;4.506;2022-08-19T00:58:34;29.75;28.45;31.86;;
69603;Laerm;56810;52.182;4.506;2022-08-19T00:58:45;29.57;28.20;31.03;;
69603;Laerm;56810;52.182;4.506;2022-08-19T00:58:56;29.58;27.94;32.00;;
69603;Laerm;56810;52.182;4.506;2022-08-19T00:59:07;29.36;28.27;30.87;;
69603;Laerm;56810;52.182;4.506;2022-08-19T00:59:19;29.98;28.56;35.25;;
69603;Laerm;56810;52.182;4.506;2022-08-19T00:59:30;29.58;28.30;30.71;;
69603;Laerm;56810;52.182;4.506;2022-08-19T00:59:40;29.83;28.38;32.19;;
69603;Laerm;56810;52.182;4.506;2022-08-19T00:59:52;30.26;28.93;31.86;;
69603;Laerm;56810;52.182;4.506;2022-08-19T01:00:11;29.66;28.49;31.34;;
69603;Laerm;56810;52.182;4.506;2022-08-19T01:00:23;29.68;28.42;32.84;;
69603;Laerm;56810;52.182;4.506;2022-08-19T01:00:34;30.11;28.40;32.63;;
69603;Laerm;56810;52.182;4.506;2022-08-19T01:00:47;29.84;28.49;31.66;;
69603;Laerm;56810;52.182;4.506;2022-08-19T01:00:58;29.74;28.38;31.07;;
69603;Laerm;56810;52.182;4.506;2022-08-19T01:01:08;30.13;28.43;33.11;;
69603;Laerm;56810;52.182;4.506;2022-08-19T01:01:18;29.68;28.41;31.45;;
69603;Laerm;56810;52.182;4.506;2022-08-19T01:01:29;29.89;28.69;31.97;;
69603;Laerm;56810;52.182;4.506;2022-08-19T01:01:39;30.04;28.41;36.88;;
69603;Laerm;56810;52.182;4.506;2022-08-19T01:01:50;29.82;28.38;31.67;;
69603;Laerm;56810;52.182;4.506;2022-08-19T01:02:01;29.97;28.37;31.29;;
69603;Laerm;56810;52.182;4.506;2022-08-19T01:02:11;30.05;28.42;32.35;;
69603;Laerm;56810;52.182;4.506;2022-08-19T01:02:23;30.59;28.95;32.78;;